Time;durP1;ratioP1;P1;durP2;ratioP2;P2;SDS_P1;SDS_P2;PMS_P1;PMS_P2;Temp;Humidity;BMP_temperature;BMP_pressure;BME280_temperature;BME280_humidity;BME280_pressure;Samples;Min_cycle;Max_cycle;Signal;HPM_P1;HPM_P2
2022/01/19 00:00:52;;;;;;;8.52;1.90;;;;;;;0.01;50.69;98058.28;5066603;28;20056;-65
2022/01/19 00:03:19;;;;;;;6.55;1.48;;;;;;;0.64;50.93;98155.56;5066285;28;20512;-61
2022/01/19 00:05:46;;;;;;;4.43;1.40;;;;;;;-0.43;50.35;98002.88;5066281;28;20044;-59
2022/01/19 00:08:17;;;;;;;6.53;1.83;;;;;;;0.67;50.47;98171.34;5066733;28;20446;-60
2022/01/19 00:10:44;;;;;;;5.72;1.50;;;;;;;0.54;50.83;98149.34;5071708;28;20058;-65
2022/01/19 00:13:11;;;;;;;7.32;1.42;;;;;;;0.60;51.20;98170.03;5086677;28;20518;-60
2022/01/19 00:15:38;;;;;;;4.15;1.60;;;;;;;0.17;50.27;98095.25;5086490;28;20052;-65
2022/01/19 00:18:05;;;;;;;8.13;1.63;;;;;;;0.67;50.61;98182.25;5085499;28;20067;-60
2022/01/19 00:20:34;;;;;;;6.20;1.30;;;;;;;0.62;51.00;98185.00;5086554;28;20054;-65
2022/01/19 00:23:03;;;;;;;9.23;1.95;;;;;;;0.19;50.36;98120.28;5086805;28;20054;-65
2022/01/19 00:25:31;;;;;;;9.55;1.88;;;;;;;0.63;50.83;98181.19;5086252;28;20485;-65
2022/01/19 00:27:58;;;;;;;8.50;1.55;;;;;;;0.43;50.67;98170.34;5086348;28;20055;-65
2022/01/19 00:30:26;;;;;;;3.85;1.20;;;;;;;0.03;50.71;98132.34;5086037;28;20056;-60
2022/01/19 00:32:54;;;;;;;4.28;3.05;;;;;;;-0.18;48.70;98044.47;5086612;28;20059;-60
2022/01/19 00:35:21;;;;;;;7.45;1.10;;;;;;;0.65;48.93;98173.53;5086376;28;21338;-59
2022/01/19 00:37:47;;;;;;;5.70;1.65;;;;;;;0.87;49.62;98203.97;5086076;28;20121;-60
2022/01/19 00:40:15;;;;;;;2.72;1.17;;;;;;;0.88;49.40;98216.53;5085803;28;20079;-65
2022/01/19 00:42:43;;;;;;;2.72;1.35;;;;;;;0.40;49.31;98219.13;5086169;28;20228;-60
2022/01/19 00:45:12;;;;;;;9.20;1.67;;;;;;;-2.54;49.37;97682.63;5084587;28;20408;-65
2022/01/19 00:47:39;;;;;;;6.60;1.40;;;;;;;0.89;50.36;98204.50;5085909;28;20068;-65
2022/01/19 00:50:09;;;;;;;5.93;1.40;;;;;;;0.89;50.15;98229.06;5084362;28;20052;-60
2022/01/19 00:52:38;;;;;;;4.47;1.58;;;;;;;0.88;50.49;98221.16;5085595;28;20044;-59
2022/01/19 00:55:08;;;;;;;5.20;1.63;;;;;;;0.77;50.51;98212.22;5084067;28;20502;-63
2022/01/19 00:57:35;;;;;;;4.85;1.67;;;;;;;0.75;50.60;98211.66;5085626;28;20052;-60
2022/01/19 01:00:07;;;;;;;5.28;1.88;;;;;;;0.24;49.92;98127.66;5086015;28;20048;-65
2022/01/19 01:02:34;;;;;;;4.45;1.35;;;;;;;0.18;49.25;98118.66;5084119;28;20059;-60
2022/01/19 01:05:01;;;;;;;7.10;1.42;;;;;;;0.76;49.62;98204.31;5085778;28;20105;-65
2022/01/19 01:07:30;;;;;;;5.78;1.20;;;;;;;0.81;49.70;98209.72;5085142;28;20055;-60
2022/01/19 01:09:56;;;;;;;5.32;1.25;;;;;;;-0.05;49.21;98073.00;5085341;28;20052;-65
2022/01/19 01:12:31;;;;;;;3.72;1.45;;;;;;;0.75;49.62;98206.22;5066604;28;20060;-61
2022/01/19 01:20:28;;;;;;;5.60;1.77;;;;;;;-0.44;49.35;98017.56;5065364;28;20528;-65
2022/01/19 01:22:55;;;;;;;3.65;1.30;;;;;;;0.86;49.57;98229.63;5063739;28;20052;-59
2022/01/19 01:25:23;;;;;;;4.85;1.30;;;;;;;0.85;49.91;98225.28;5063394;28;20061;-65
2022/01/19 01:27:49;;;;;;;5.40;1.77;;;;;;;0.70;49.54;98208.97;5064811;28;20147;-65
2022/01/19 01:30:16;;;;;;;3.85;1.65;;;;;;;0.77;50.01;98219.56;5064310;28;20051;-64
2022/01/19 01:32:43;;;;;;;3.83;1.30;;;;;;;0.78;50.63;98219.28;5064440;28;20049;-65
2022/01/19 01:35:12;;;;;;;8.55;1.58;;;;;;;0.74;50.22;98223.69;5064417;28;20040;-65
2022/01/19 01:37:39;;;;;;;6.93;1.50;;;;;;;0.76;49.77;98202.38;5064547;28;20325;-65
2022/01/19 01:40:08;;;;;;;6.68;1.27;;;;;;;0.60;50.32;98180.94;5064462;28;20078;-65
2022/01/19 01:42:36;;;;;;;3.88;1.55;;;;;;;0.74;49.88;98190.97;5063249;28;20131;-61
2022/01/19 01:45:03;;;;;;;5.55;2.15;;;;;;;0.69;49.73;98196.44;5064302;28;20056;-60
2022/01/19 01:47:32;;;;;;;10.05;2.10;;;;;;;0.71;50.18;98198.88;5064622;28;20060;-64
2022/01/19 01:55:14;;;;;;;9.38;2.00;;;;;;;0.34;51.59;98166.56;5064201;28;20052;-60
2022/01/19 01:57:40;;;;;;;7.28;1.20;;;;;;;0.43;50.75;98192.16;5063981;28;20052;-66
2022/01/19 02:00:11;;;;;;;2.80;0.90;;;;;;;0.58;49.82;98189.38;5064138;28;20539;-65
2022/01/19 02:02:39;;;;;;;1.75;1.05;;;;;;;0.58;50.09;98183.94;5064586;28;20041;-59
2022/01/19 02:05:12;;;;;;;4.80;1.73;;;;;;;0.49;50.39;98185.59;5062633;28;20056;-60
2022/01/19 02:08:04;;;;;;;7.63;1.38;;;;;;;0.56;49.60;98188.84;5062825;28;20052;-59
2022/01/19 02:10:43;;;;;;;4.85;1.52;;;;;;;0.47;49.92;98168.72;5066785;28;20552;-59
2022/01/19 02:21:42;;;;;;;6.70;1.70;;;;;;;0.14;49.02;98090.38;5084667;28;20514;-62
2022/01/19 02:24:13;;;;;;;4.95;1.33;;;;;;;0.42;49.41;98125.13;5083089;28;20078;-60
2022/01/19 02:30:13;;;;;;;;;;;;;;;0.55;49.23;98140.88;5084475;28;20055;-60
2022/01/19 02:40:31;;;;;;;15.43;4.53;;;;;;;0.41;49.39;98155.38;5083630;28;20052;-65
2022/01/19 02:51:01;;;;;;;7.00;1.90;;;;;;;0.36;49.18;98171.75;5083688;28;20059;-65
2022/01/19 02:53:27;;;;;;;7.68;1.20;;;;;;;0.30;49.70;98165.47;5084157;28;20052;-65
2022/01/19 02:55:54;;;;;;;5.15;1.70;;;;;;;0.09;50.95;98147.56;5082072;28;20517;-65
2022/01/19 02:58:23;;;;;;;10.45;4.30;;;;;;;0.20;51.24;98175.59;5083293;28;20302;-59
2022/01/19 03:08:54;;;;;;;9.98;3.20;;;;;;;-0.52;53.26;98129.72;5083161;28;20056;-59
2022/01/19 03:11:23;;;;;;;12.65;3.70;;;;;;;-0.25;54.02;98201.81;5073790;28;20048;-65
2022/01/19 03:13:50;;;;;;;9.90;3.28;;;;;;;-0.40;54.90;98193.66;5064192;28;20048;-60
2022/01/19 03:16:19;;;;;;;15.05;5.50;;;;;;;-0.54;55.13;98191.75;5063447;28;20605;-59
2022/01/19 03:18:49;;;;;;;16.90;6.38;;;;;;;-0.41;55.22;98185.75;5063077;28;20048;-65
2022/01/19 03:21:17;;;;;;;16.42;6.07;;;;;;;-1.12;55.61;98102.47;5062910;28;20052;-65
2022/01/19 03:23:44;;;;;;;20.25;6.47;;;;;;;-0.69;56.08;98208.03;5061879;28;20059;-61
2022/01/19 03:26:11;;;;;;;19.33;6.95;;;;;;;-0.67;55.50;98203.16;5061547;28;20079;-66
2022/01/19 03:28:38;;;;;;;15.50;5.78;;;;;;;-0.78;55.88;98210.47;5063533;28;20053;-60
2022/01/19 03:31:05;;;;;;;15.15;5.53;;;;;;;-1.31;57.48;98126.59;5062968;28;20059;-66
2022/01/19 03:33:32;;;;;;;16.77;5.60;;;;;;;-1.38;56.93;98115.19;5061793;28;20067;-62
2022/01/19 03:35:59;;;;;;;18.98;5.60;;;;;;;-0.81;57.48;98213.75;5062996;28;20049;-61
2022/01/19 03:38:26;;;;;;;18.42;6.18;;;;;;;-0.96;57.68;98215.59;5062744;28;20048;-60
2022/01/19 03:40:52;;;;;;;13.23;4.90;;;;;;;-0.97;57.58;98213.97;5061635;28;20048;-59
2022/01/19 03:43:19;;;;;;;117.93;33.78;;;;;;;-1.44;57.07;98132.56;5062977;28;20052;-60
2022/01/19 03:45:52;;;;;;;32.22;11.23;;;;;;;-0.99;57.48;98218.84;5063069;28;20063;-66
2022/01/19 03:51:04;;;;;;;16.75;7.25;;;;;;;-1.18;58.56;98225.84;5063013;28;20045;-65
2022/01/19 03:53:31;;;;;;;22.10;7.63;;;;;;;-1.70;58.75;98144.41;5066298;28;20091;-59
2022/01/19 03:55:58;;;;;;;42.25;14.07;;;;;;;-1.14;59.15;98218.81;5066692;28;20053;-61
2022/01/19 03:58:25;;;;;;;38.17;12.57;;;;;;;-1.24;58.75;98224.19;5066659;28;20056;-61
2022/01/19 04:00:55;;;;;;;46.97;15.60;;;;;;;-1.68;59.37;98167.53;5066779;28;20052;-59
2022/01/19 04:06:17;;;;;;;122.05;43.78;;;;;;;-1.45;60.40;98244.22;5066569;28;20060;-59
2022/01/19 04:08:44;;;;;;;55.28;18.50;;;;;;;-2.62;62.58;98103.44;5066329;28;20065;-65
2022/01/19 04:11:13;;;;;;;29.83;12.82;;;;;;;-1.73;63.21;98246.25;5073640;28;20058;-65
2022/01/19 04:16:21;;;;;;;57.45;16.27;;;;;;;-1.99;64.32;98217.28;5086590;28;20052;-61
2022/01/19 04:18:50;;;;;;;66.18;20.52;;;;;;;-2.25;64.22;98196.50;5085326;28;20060;-65
2022/01/19 04:21:17;;;;;;;40.03;14.20;;;;;;;-2.02;63.97;98241.41;5085037;28;20179;-58
2022/01/19 04:23:44;;;;;;;30.92;10.88;;;;;;;-2.62;63.74;98146.84;5085042;28;20058;-59
2022/01/19 04:26:11;;;;;;;30.42;9.10;;;;;;;-2.07;63.47;98231.34;5084914;28;20052;-59
2022/01/19 04:28:38;;;;;;;24.40;8.63;;;;;;;-2.08;63.19;98224.28;5086436;28;20090;-66
2022/01/19 04:31:05;;;;;;;19.98;6.35;;;;;;;-2.02;62.63;98239.53;5086030;28;20527;-64
2022/01/19 04:33:32;;;;;;;26.63;9.95;;;;;;;-2.01;62.70;98246.56;5085058;28;20048;-59
2022/01/19 04:36:19;;;;;;;66.70;21.23;;;;;;;-2.04;62.90;98249.81;5086296;28;20048;-59
2022/01/19 05:06:02;;;;;;;33.13;11.07;;;;;;;-2.34;62.79;98274.00;5084060;28;20052;-65
2022/01/19 05:13:50;;;;;;;13.85;5.85;;;;;;;-3.17;63.25;98168.00;5065305;28;20561;-59
2022/01/19 05:16:19;;;;;;;21.08;8.90;;;;;;;-2.56;63.21;98289.53;5065124;28;20048;-65
2022/01/19 05:18:47;;;;;;;24.80;9.70;;;;;;;-2.60;63.67;98274.84;5063977;28;20468;-60
2022/01/19 05:21:15;;;;;;;32.83;12.32;;;;;;;-2.52;64.21;98296.09;5064612;28;20412;-60
2022/01/19 05:23:42;;;;;;;21.70;8.80;;;;;;;-2.52;64.44;98293.38;5065532;28;20086;-60
2022/01/19 05:26:09;;;;;;;32.63;10.55;;;;;;;-2.58;64.33;98293.56;5064930;28;20060;-66
2022/01/19 05:28:37;;;;;;;33.88;11.82;;;;;;;-2.57;63.58;98306.88;5063491;28;20075;-60
2022/01/19 05:31:04;;;;;;;42.70;13.43;;;;;;;-3.56;64.03;98172.75;5063210;28;20064;-66
2022/01/19 05:33:31;;;;;;;27.25;9.00;;;;;;;-3.28;64.65;98255.66;5064478;28;20447;-66
2022/01/19 05:35:58;;;;;;;25.33;8.30;;;;;;;-3.09;65.25;98303.03;5064474;28;20055;-66
2022/01/19 05:38:25;;;;;;;21.35;7.25;;;;;;;-2.88;65.07;98321.19;5062935;28;20059;-66
2022/01/19 05:40:52;;;;;;;24.70;8.68;;;;;;;-3.02;65.51;98324.53;5064429;28;20048;-61
2022/01/19 05:43:19;;;;;;;24.38;9.00;;;;;;;-3.00;65.75;98317.75;5063013;28;20067;-65
2022/01/19 05:45:46;;;;;;;22.58;7.45;;;;;;;-3.00;64.78;98315.06;5067992;28;20052;-59
2022/01/19 05:48:13;;;;;;;20.38;8.27;;;;;;;-3.52;65.36;98244.25;5064468;28;20485;-62
2022/01/19 05:50:40;;;;;;;38.30;15.43;;;;;;;-4.45;65.60;98080.38;5063058;28;20052;-61
2022/01/19 05:53:06;;;;;;;33.50;12.75;;;;;;;-2.99;66.57;98332.16;5064779;28;20067;-62
2022/01/19 05:55:33;;;;;;;45.83;16.90;;;;;;;-2.95;66.48;98344.94;5062956;28;20048;-63
2022/01/19 05:58:00;;;;;;;44.80;15.27;;;;;;;-3.03;66.66;98358.91;5062902;28;20048;-62
2022/01/19 06:00:27;;;;;;;30.50;8.93;;;;;;;-3.32;66.48;98330.38;5062889;28;20243;-62
2022/01/19 06:02:53;;;;;;;27.55;11.20;;;;;;;-3.03;66.51;98366.25;5063929;28;20052;-61
2022/01/19 06:05:20;;;;;;;22.25;8.13;;;;;;;-2.93;66.51;98369.91;5064133;28;20086;-62
2022/01/19 06:07:48;;;;;;;24.48;7.82;;;;;;;-2.87;66.32;98359.94;5064501;28;20060;-63
2022/01/19 06:13:00;;;;;;;33.80;12.80;;;;;;;-2.73;65.29;98374.75;5064488;28;20059;-62
2022/01/19 06:15:27;;;;;;;41.25;15.13;;;;;;;-2.67;65.04;98377.25;5063322;28;20051;-63
2022/01/19 06:17:54;;;;;;;56.80;19.92;;;;;;;-2.57;65.32;98360.28;5063913;28;20067;-63
2022/01/19 06:20:21;;;;;;;52.75;19.27;;;;;;;-2.58;64.49;98351.34;5063823;28;20056;-64
2022/01/19 06:22:48;;;;;;;47.88;18.25;;;;;;;-2.38;64.52;98370.56;5063924;28;20057;-61
2022/01/19 06:25:15;;;;;;;54.95;20.60;;;;;;;-2.20;63.65;98372.09;5062528;28;20055;-61
2022/01/19 06:27:42;;;;;;;77.28;26.30;;;;;;;-2.49;62.12;98287.44;5062372;28;20056;-60
2022/01/19 06:30:11;;;;;;;58.55;23.58;;;;;;;-2.01;63.54;98376.88;5063944;28;20052;-62
2022/01/19 06:32:38;;;;;;;73.82;26.90;;;;;;;-1.90;63.85;98378.59;5063171;28;20511;-61
2022/01/19 06:35:06;;;;;;;63.63;23.73;;;;;;;-1.75;63.69;98383.34;5063786;28;20052;-62
2022/01/19 06:37:33;;;;;;;37.65;15.48;;;;;;;-2.18;62.53;98300.19;5063192;28;20051;-64
2022/01/19 06:40:00;;;;;;;55.95;18.52;;;;;;;-1.60;62.10;98387.00;5063632;28;20071;-63
2022/01/19 06:42:29;;;;;;;36.95;16.10;;;;;;;-1.58;62.13;98384.84;5062614;28;20060;-64
2022/01/19 06:44:56;;;;;;;53.75;17.42;;;;;;;-1.52;61.98;98384.91;5061980;28;20329;-62
2022/01/19 06:47:22;;;;;;;46.80;15.60;;;;;;;-1.87;61.14;98326.53;5063436;28;20040;-59
2022/01/19 06:49:49;;;;;;;52.75;14.43;;;;;;;-1.81;60.87;98309.19;5062651;28;20071;-59
2022/01/19 06:52:16;;;;;;;44.72;11.02;;;;;;;-2.56;60.63;98197.31;5063773;28;20056;-58
2022/01/19 06:54:43;;;;;;;33.83;9.43;;;;;;;-1.26;60.60;98406.56;5083569;28;20048;-62
2022/01/19 06:57:10;;;;;;;24.90;9.30;;;;;;;-1.45;61.05;98348.28;5062791;28;20044;-62
2022/01/19 06:59:36;;;;;;;30.15;11.90;;;;;;;-1.65;60.92;98300.06;5070513;28;20052;-62
2022/01/19 07:02:03;;;;;;;37.80;13.43;;;;;;;-1.22;61.26;98341.63;5077602;28;20048;-62
2022/01/19 07:04:30;;;;;;;27.10;11.73;;;;;;;-1.09;60.30;98352.03;5074397;28;20048;-61
2022/01/19 07:06:57;;;;;;;25.98;8.40;;;;;;;-2.03;60.31;98175.47;5076543;28;20489;-62
2022/01/19 07:09:24;;;;;;;21.17;9.57;;;;;;;-1.05;59.19;98282.44;5066403;28;20101;-64
2022/01/19 07:11:50;;;;;;;25.35;9.55;;;;;;;-0.79;58.06;98330.41;5067385;28;20068;-64
2022/01/19 07:14:17;;;;;;;33.90;12.02;;;;;;;-0.16;57.81;98385.31;5070547;28;20044;-58
2022/01/19 07:16:44;;;;;;;35.70;14.80;;;;;;;-0.62;58.11;98292.94;5070632;28;20059;-61
2022/01/19 07:19:13;;;;;;;39.95;16.67;;;;;;;-0.82;58.33;98220.25;5063441;28;20482;-64
2022/01/19 07:21:40;;;;;;;47.65;17.70;;;;;;;0.45;57.40;98364.41;5065267;28;20064;-62
2022/01/19 07:24:07;;;;;;;54.25;21.13;;;;;;;0.65;56.30;98369.81;5066542;28;20095;-69
2022/01/19 07:26:34;;;;;;;52.90;21.83;;;;;;;0.82;55.93;98375.78;5063522;28;20064;-60
2022/01/19 07:29:02;;;;;;;36.45;14.20;;;;;;;0.02;54.65;98231.47;5068606;28;20049;-63
2022/01/19 07:31:29;;;;;;;41.60;13.15;;;;;;;1.02;53.99;98381.22;5075037;28;20565;-62
2022/01/19 07:33:55;;;;;;;27.70;11.77;;;;;;;0.93;54.42;98322.84;5072017;28;20060;-59
2022/01/19 07:36:22;;;;;;;13.90;5.55;;;;;;;1.37;53.72;98367.47;5074947;28;20048;-66
2022/01/19 07:38:49;;;;;;;15.15;6.07;;;;;;;-0.40;53.49;98073.09;5070889;28;20060;-61
2022/01/19 07:41:16;;;;;;;16.88;7.10;;;;;;;1.18;52.48;98330.97;5072786;28;20104;-65
2022/01/19 07:43:43;;;;;;;21.75;9.85;;;;;;;1.47;52.94;98348.31;5083877;28;20059;-60
2022/01/19 07:46:10;;;;;;;12.00;5.95;;;;;;;1.97;52.92;98376.44;5086915;28;20071;-60
2022/01/19 07:48:37;;;;;;;20.83;10.98;;;;;;;1.19;52.38;98236.28;5075518;28;20135;-60
2022/01/19 07:51:07;;;;;;;22.70;8.32;;;;;;;1.94;51.76;98338.78;5066723;28;20056;-62
2022/01/19 07:53:34;;;;;;;11.32;3.80;;;;;;;2.03;50.62;98317.94;5064719;28;20138;-61
2022/01/19 07:56:03;;;;;;;5.60;2.47;;;;;;;2.33;49.94;98380.56;5066802;28;20084;-61
2022/01/19 07:58:30;;;;;;;10.27;4.13;;;;;;;2.14;50.00;98330.41;5066155;28;20185;-63
2022/01/19 08:00:56;;;;;;;9.38;3.47;;;;;;;0.01;48.60;98003.81;5063089;28;20044;-60
2022/01/19 08:03:24;;;;;;;13.60;6.35;;;;;;;1.62;48.07;98227.28;5064788;28;20049;-63
2022/01/19 08:05:51;;;;;;;19.42;7.82;;;;;;;2.79;47.78;98368.97;5073520;28;20417;-65
2022/01/19 08:08:18;;;;;;;15.55;4.63;;;;;;;2.71;47.93;98314.06;5077193;28;20518;-64
2022/01/19 08:10:45;;;;;;;13.95;4.60;;;;;;;3.16;46.50;98357.38;5074100;28;20044;-62
2022/01/19 08:13:14;;;;;;;18.13;6.50;;;;;;;2.52;46.38;98242.06;5082899;28;20519;-62
2022/01/19 08:15:41;;;;;;;46.28;13.20;;;;;;;3.43;45.93;98360.34;5084529;28;20147;-62
2022/01/19 08:18:08;;;;;;;28.70;9.63;;;;;;;3.06;45.55;98280.84;5085792;28;20093;-62
2022/01/19 08:20:35;;;;;;;12.48;5.47;;;;;;;3.51;45.65;98354.22;5085717;28;20526;-62
2022/01/19 08:23:03;;;;;;;17.00;5.70;;;;;;;2.59;45.68;98191.38;5085816;28;20125;-61
2022/01/19 08:25:30;;;;;;;16.08;6.30;;;;;;;3.40;45.93;98319.03;5073810;28;20055;-61
2022/01/19 08:27:57;;;;;;;11.55;5.07;;;;;;;3.55;45.46;98347.06;5082812;28;20056;-61
2022/01/19 08:30:23;;;;;;;15.00;6.90;;;;;;;3.55;45.84;98349.78;5081172;28;20592;-65
2022/01/19 08:32:50;;;;;;;18.48;7.65;;;;;;;3.66;45.69;98339.50;5067137;28;20048;-61
2022/01/19 08:35:17;;;;;;;16.27;5.30;;;;;;;3.58;46.16;98305.38;5079496;28;20044;-61
2022/01/19 08:37:44;;;;;;;9.88;3.50;;;;;;;4.07;45.25;98352.38;5073120;28;20049;-62
2022/01/19 08:40:12;;;;;;;15.60;5.68;;;;;;;4.05;43.83;98348.28;5076348;28;20051;-61
2022/01/19 08:42:39;;;;;;;15.18;5.20;;;;;;;3.16;44.54;98220.50;5071640;28;20044;-59
2022/01/19 08:45:08;;;;;;;12.30;4.32;;;;;;;3.92;43.49;98305.97;5072927;28;20140;-61
2022/01/19 08:47:37;;;;;;;6.30;3.00;;;;;;;3.85;42.51;98322.00;5069678;28;20158;-61
2022/01/19 08:50:06;;;;;;;8.43;3.33;;;;;;;3.78;42.67;98287.84;5072281;28;20055;-62
2022/01/19 08:52:34;;;;;;;5.50;2.13;;;;;;;3.97;43.13;98335.22;5069363;28;20048;-62
2022/01/19 08:55:01;;;;;;;5.97;1.45;;;;;;;3.93;42.82;98340.50;5074486;28;20541;-62
2022/01/19 08:57:28;;;;;;;4.30;1.73;;;;;;;3.43;43.11;98319.25;5062581;28;20045;-64
2022/01/19 08:59:55;;;;;;;4.60;1.58;;;;;;;3.01;43.94;98207.00;5062515;28;20054;-64
2022/01/19 09:02:21;;;;;;;5.68;1.92;;;;;;;2.88;43.40;98183.09;5067832;28;20566;-67
2022/01/19 09:04:48;;;;;;;7.07;2.45;;;;;;;3.71;43.65;98332.06;5081119;28;20488;-65
2022/01/19 09:07:17;;;;;;;6.47;2.42;;;;;;;3.39;43.81;98298.22;5071509;28;20645;-60
2022/01/19 09:09:44;;;;;;;9.43;2.50;;;;;;;3.62;43.10;98325.56;5070540;28;20124;-61
2022/01/19 09:12:13;;;;;;;5.25;2.13;;;;;;;3.47;43.11;98300.31;5083422;28;20080;-61
2022/01/19 09:14:39;;;;;;;6.40;2.65;;;;;;;3.31;43.35;98266.00;5081401;28;20055;-60
2022/01/19 09:17:08;;;;;;;10.63;2.33;;;;;;;3.22;43.38;98245.88;5064601;28;20256;-62
2022/01/19 09:19:39;;;;;;;5.72;1.77;;;;;;;3.77;43.10;98314.44;5081030;28;20573;-63
2022/01/19 09:22:07;;;;;;;5.25;2.13;;;;;;;3.37;42.90;98319.63;5084542;28;20074;-62
2022/01/19 09:24:36;;;;;;;5.68;2.53;;;;;;;3.13;43.09;98201.91;5084570;28;20060;-63
2022/01/19 09:27:04;;;;;;;9.15;2.50;;;;;;;2.32;43.50;98100.13;5083938;28;20052;-62
2022/01/19 09:29:31;;;;;;;7.88;2.25;;;;;;;3.78;42.57;98305.09;5083623;28;20274;-59
2022/01/19 09:32:00;;;;;;;8.50;4.28;;;;;;;2.90;42.82;98135.19;5078604;28;20530;-61
2022/01/19 09:34:28;;;;;;;10.45;3.22;;;;;;;3.39;43.06;98186.78;5069505;28;20045;-60
2022/01/19 09:36:54;;;;;;;11.02;3.25;;;;;;;3.94;42.30;98259.06;5080316;28;20048;-62
2022/01/19 09:39:23;;;;;;;9.30;2.22;;;;;;;3.84;41.75;98216.19;5070878;28;20048;-65
2022/01/19 09:41:51;;;;;;;4.95;2.10;;;;;;;1.84;41.90;97923.66;5073295;28;20546;-60
2022/01/19 09:44:20;;;;;;;8.45;2.22;;;;;;;4.10;41.41;98247.59;5074691;28;20047;-63
2022/01/19 09:46:48;;;;;;;5.85;2.28;;;;;;;4.44;41.70;98285.69;5077600;28;20055;-63
2022/01/19 09:49:19;;;;;;;5.25;2.45;;;;;;;4.54;40.96;98282.75;5076311;28;20048;-64
2022/01/19 09:51:50;;;;;;;4.53;2.47;;;;;;;4.54;40.59;98242.41;5083329;28;20054;-61
2022/01/19 09:54:23;;;;;;;4.38;1.77;;;;;;;4.78;38.83;98263.38;5081255;28;20140;-62
2022/01/19 09:56:50;;;;;;;7.50;2.65;;;;;;;4.07;39.27;98154.97;5074984;28;20048;-62
2022/01/19 09:59:17;;;;;;;2.92;1.50;;;;;;;4.84;38.37;98278.66;5076863;28;20130;-61
2022/01/19 10:02:07;;;;;;;4.03;1.60;;;;;;;4.85;38.41;98259.13;5064876;28;20491;-62
2022/01/19 10:04:41;;;;;;;3.05;1.42;;;;;;;4.55;36.90;98211.09;5068292;28;20091;-62
2022/01/19 10:07:12;;;;;;;7.07;2.00;;;;;;;4.53;39.19;98260.00;5074886;28;20060;-63
2022/01/19 10:09:59;;;;;;;3.60;1.77;;;;;;;4.99;39.41;98253.66;5071563;28;20080;-61
2022/01/19 10:18:28;;;;;;;7.97;2.35;;;;;;;5.31;37.14;98237.06;5083801;28;20059;-60
2022/01/19 10:21:12;;;;;;;3.60;1.90;;;;;;;5.33;37.67;98243.03;5083674;28;20052;-60
2022/01/19 10:23:41;;;;;;;4.35;1.55;;;;;;;5.35;38.18;98235.31;5082440;28;20055;-60
2022/01/19 10:26:11;;;;;;;3.90;2.20;;;;;;;5.52;36.53;98227.22;5083164;28;20044;-60
2022/01/19 10:28:53;;;;;;;6.43;1.90;;;;;;;5.62;36.36;98224.25;5083523;28;20067;-60
2022/01/19 10:31:20;;;;;;;6.10;1.73;;;;;;;5.66;36.40;98228.00;5083553;28;20047;-61
2022/01/19 10:34:12;;;;;;;5.65;2.15;;;;;;;5.89;36.47;98227.78;5083601;28;20060;-61
2022/01/19 10:36:43;;;;;;;5.25;2.20;;;;;;;5.96;36.64;98230.06;5083627;28;20055;-60
2022/01/19 10:39:09;;;;;;;10.77;3.55;;;;;;;6.02;36.32;98234.34;5081150;28;20430;-63
2022/01/19 10:42:05;;;;;;;30.58;8.68;;;;;;;5.90;36.24;98215.66;5079254;28;20474;-61
2022/01/19 10:44:41;;;;;;;5.63;2.17;;;;;;;3.57;35.99;97821.66;5077277;28;20055;-62
2022/01/19 10:47:49;;;;;;;4.20;2.30;;;;;;;5.90;36.08;98198.34;5065951;28;20056;-60
2022/01/19 10:50:30;;;;;;;6.20;2.22;;;;;;;5.78;35.81;98200.81;5061972;28;20135;-60
2022/01/19 10:53:04;;;;;;;14.02;4.60;;;;;;;5.75;36.40;98139.00;5070079;28;20059;-62
2022/01/19 10:55:38;;;;;;;11.15;2.42;;;;;;;6.06;35.11;98183.91;5079597;28;20055;-61
2022/01/19 10:58:14;;;;;;;63.78;21.40;;;;;;;6.04;35.25;98172.41;5081547;28;20148;-62
2022/01/19 11:00:50;;;;;;;17.85;5.72;;;;;;;5.20;35.15;98054.38;5075031;28;20048;-62
2022/01/19 11:03:19;;;;;;;11.05;3.60;;;;;;;5.90;35.05;98165.34;5074854;28;20062;-63
2022/01/19 11:05:58;;;;;;;6.40;2.60;;;;;;;5.69;34.99;98158.69;5072042;28;20561;-61
2022/01/19 11:08:27;;;;;;;2.90;1.60;;;;;;;4.54;34.75;98008.41;5075537;28;20511;-62
2022/01/19 11:10:57;;;;;;;4.20;1.48;;;;;;;5.31;35.24;98107.94;5072253;28;20048;-63
2022/01/19 11:13:40;;;;;;;26.70;8.00;;;;;;;6.03;35.20;98158.97;5081835;28;20048;-62
2022/01/19 11:16:07;;;;;;;9.13;2.25;;;;;;;5.37;34.87;98068.25;5066115;28;20082;-61
2022/01/19 11:18:37;;;;;;;5.22;2.45;;;;;;;6.02;34.52;98162.84;5081476;28;20055;-62
2022/01/19 11:21:08;;;;;;;4.22;2.15;;;;;;;5.94;34.63;98122.34;5069460;28;20090;-61
2022/01/19 11:24:08;;;;;;;3.95;1.60;;;;;;;6.11;33.41;98116.94;5064642;28;20628;-60
2022/01/19 11:26:36;;;;;;;3.85;1.52;;;;;;;6.14;34.73;98121.81;5062802;28;20057;-65
2022/01/19 11:29:18;;;;;;;5.10;2.42;;;;;;;5.85;34.16;98091.22;5062680;28;20056;-66
2022/01/19 11:31:45;;;;;;;4.07;1.70;;;;;;;5.51;34.64;98056.06;5073819;28;20400;-61
2022/01/19 11:34:13;;;;;;;5.20;2.03;;;;;;;5.70;34.50;98067.69;5080944;28;20056;-63
2022/01/19 11:36:42;;;;;;;5.28;1.80;;;;;;;5.98;34.37;98142.59;5078554;28;20056;-65
2022/01/19 11:39:12;;;;;;;5.93;2.15;;;;;;;5.93;34.60;98175.72;5069820;28;20044;-64
2022/01/19 11:41:55;;;;;;;16.02;5.00;;;;;;;5.98;34.50;98095.84;5082525;28;20048;-60
2022/01/19 11:44:28;;;;;;;;;;;;;;;6.05;34.29;98083.25;5079270;28;20139;-60
2022/01/19 11:47:09;;;;;;;6.68;2.50;;;;;;;6.37;34.47;98125.34;5070493;28;20029;-67
2022/01/19 11:50:01;;;;;;;11.20;4.00;;;;;;;6.02;34.92;98080.34;5068029;28;20083;-66
2022/01/19 11:52:37;;;;;;;9.25;2.85;;;;;;;5.96;34.51;98059.59;5070831;28;20135;-65
2022/01/19 11:55:13;;;;;;;6.72;2.83;;;;;;;6.46;34.25;98178.47;5083026;28;20050;-65
2022/01/19 11:57:41;;;;;;;7.78;2.58;;;;;;;6.20;33.96;98106.78;5081307;28;20159;-62
2022/01/19 12:00:13;;;;;;;8.10;3.67;;;;;;;5.81;34.21;98018.72;5071986;28;20088;-62
2022/01/19 12:02:52;;;;;;;4.25;2.38;;;;;;;6.19;34.20;98091.44;5072323;28;20048;-63
2022/01/19 12:05:41;;;;;;;3.75;1.70;;;;;;;6.32;33.86;98112.53;5073840;28;20427;-65
2022/01/19 12:08:27;;;;;;;7.65;2.58;;;;;;;5.13;34.08;97911.19;5070362;28;20070;-63
2022/01/19 12:11:10;;;;;;;21.77;7.50;;;;;;;6.22;33.61;98027.53;5077058;28;20135;-66
2022/01/19 12:16:18;;;;;;;5.43;2.33;;;;;;;6.52;32.77;98084.44;5085493;28;20048;-61
2022/01/19 12:18:56;;;;;;;2.88;1.70;;;;;;;6.56;32.02;98085.41;5085882;28;20527;-66
2022/01/19 12:21:29;;;;;;;2.72;1.92;;;;;;;6.60;32.86;98075.41;5073034;28;20546;-66
2022/01/19 12:24:32;;;;;;;11.25;5.75;;;;;;;6.81;32.77;98075.63;5084739;28;20048;-61
2022/01/19 12:27:08;;;;;;;5.75;2.65;;;;;;;7.01;32.12;98075.81;5085702;28;20048;-65
2022/01/19 12:29:36;;;;;;;4.03;2.25;;;;;;;7.07;31.68;98069.00;5074851;28;20056;-64
2022/01/19 12:32:15;;;;;;;12.20;5.85;;;;;;;7.18;32.30;98070.31;5068670;28;20079;-62
2022/01/19 12:35:11;;;;;;;15.65;5.80;;;;;;;7.14;31.41;98071.28;5066019;28;20110;-62
2022/01/19 12:37:57;;;;;;;7.00;2.63;;;;;;;6.37;32.76;98005.06;5065118;28;20130;-62
2022/01/19 12:40:43;;;;;;;3.88;2.17;;;;;;;6.87;31.82;98058.63;5065770;28;20052;-62
2022/01/19 12:43:37;;;;;;;6.88;2.83;;;;;;;6.98;32.79;98070.94;5065033;28;20614;-66
2022/01/19 12:46:08;;;;;;;28.15;8.18;;;;;;;6.95;32.33;98066.09;5064455;28;20497;-61
2022/01/19 12:48:37;;;;;;;124.20;29.60;;;;;;;6.46;32.15;97978.38;5079499;28;20503;-66
2022/01/19 12:51:05;;;;;;;42.70;13.05;;;;;;;6.82;32.52;98061.53;5074753;28;20586;-63
2022/01/19 12:53:32;;;;;;;40.20;11.60;;;;;;;6.52;31.63;98050.59;5072414;28;20049;-63
2022/01/19 12:56:04;;;;;;;17.10;6.10;;;;;;;6.92;32.69;98041.94;5070414;28;20600;-61
2022/01/19 12:58:37;;;;;;;15.55;4.53;;;;;;;6.86;32.62;98051.47;5065066;28;20066;-61
2022/01/19 13:01:07;;;;;;;17.67;7.38;;;;;;;6.81;33.87;98026.84;5077376;28;20071;-64
2022/01/19 13:03:41;;;;;;;5.55;2.45;;;;;;;6.92;31.77;98013.59;5075771;28;20075;-64
2022/01/19 13:06:13;;;;;;;8.07;4.05;;;;;;;7.16;32.03;98039.50;5079183;28;20131;-64
2022/01/19 13:08:59;;;;;;;7.78;3.28;;;;;;;7.11;31.35;98031.41;5075137;28;20140;-61
2022/01/19 13:11:41;;;;;;;10.18;3.67;;;;;;;6.97;31.79;98025.25;5074981;28;20044;-60
2022/01/19 13:14:13;;;;;;;18.50;7.78;;;;;;;7.08;31.23;98053.31;5070575;28;20238;-63
2022/01/19 13:16:49;;;;;;;17.08;7.35;;;;;;;7.07;31.91;98019.44;5073614;28;20036;-62
2022/01/19 13:19:19;;;;;;;14.80;5.68;;;;;;;6.33;32.00;97899.53;5077169;28;20056;-63
2022/01/19 13:21:48;;;;;;;8.98;5.00;;;;;;;7.14;33.09;98021.69;5079283;28;20056;-64
2022/01/19 13:24:23;;;;;;;4.30;2.47;;;;;;;6.76;32.63;97985.72;5063218;28;20044;-62
2022/01/19 13:26:57;;;;;;;8.00;3.67;;;;;;;6.91;33.01;98004.50;5068341;28;20045;-66